createdAt,value
2022-12-27T00:00:11.165Z,1.50
2022-12-27T00:03:05.729Z,1.80
2022-12-27T00:05:37.429Z,1.50
2022-12-27T00:08:09.185Z,1.40
2022-12-27T00:10:46.305Z,1.70
2022-12-27T00:13:19.312Z,1.60
2022-12-27T00:15:52.799Z,1.20
2022-12-27T00:18:24.637Z,1.60
2022-12-27T00:21:08.435Z,1.20
2022-12-27T00:23:42.894Z,1.60
2022-12-27T00:26:19.295Z,1.80
2022-12-27T00:28:52.043Z,1.10
2022-12-27T00:31:25.373Z,1.70
2022-12-27T00:33:59.703Z,1.80
2022-12-27T00:36:32.904Z,1.70
2022-12-27T00:39:05.315Z,2.20
2022-12-27T00:41:37.203Z,2.00
2022-12-27T00:44:09.732Z,2.00
2022-12-27T00:46:41.466Z,1.60
2022-12-27T00:49:13.286Z,2.70
2022-12-27T00:51:45.046Z,1.20
2022-12-27T00:54:16.906Z,1.90
2022-12-27T00:56:48.641Z,1.90
2022-12-27T00:59:20.364Z,2.10
2022-12-27T01:01:52.442Z,1.50
2022-12-27T01:04:24.390Z,2.50
2022-12-27T01:06:56.145Z,1.60
2022-12-27T01:09:28.245Z,2.30
2022-12-27T01:12:00.012Z,2.60
2022-12-27T01:14:32.473Z,1.90
2022-12-27T01:17:04.185Z,1.90
2022-12-27T01:19:37.909Z,2.20
2022-12-27T01:22:09.999Z,2.30
2022-12-27T01:24:41.760Z,2.00
2022-12-27T01:27:13.709Z,1.80
2022-12-27T01:29:45.353Z,2.40
2022-12-27T01:32:17.063Z,2.90
2022-12-27T01:34:48.743Z,2.00
2022-12-27T01:37:20.482Z,2.90
2022-12-27T01:39:52.263Z,1.90
2022-12-27T01:42:42.003Z,2.40
2022-12-27T01:45:17.711Z,2.10
2022-12-27T01:47:55.138Z,2.60
2022-12-27T01:50:32.253Z,2.30
2022-12-27T01:53:12.566Z,1.80
2022-12-27T01:55:49.954Z,2.30
2022-12-27T01:58:26.548Z,3.10
2022-12-27T02:01:00.226Z,2.40
2022-12-27T02:03:36.181Z,1.80
2022-12-27T02:06:10.634Z,2.40
2022-12-27T02:08:50.832Z,2.60
2022-12-27T02:11:41.458Z,2.10
2022-12-27T02:14:14.554Z,2.30
2022-12-27T02:16:47.067Z,2.70
2022-12-27T02:19:27.001Z,2.20
2022-12-27T02:22:32.032Z,2.30
2022-12-27T02:25:19.823Z,2.10
2022-12-27T02:28:15.289Z,2.00
2022-12-27T02:30:51.753Z,2.40
2022-12-27T02:33:29.173Z,2.50
2022-12-27T02:36:05.790Z,2.20
2022-12-27T02:38:42.067Z,1.90
2022-12-27T02:41:32.310Z,2.00
2022-12-27T02:44:21.554Z,1.80
2022-12-27T02:47:12.390Z,2.30
2022-12-27T02:50:02.089Z,2.10
2022-12-27T02:53:02.176Z,2.70
2022-12-27T02:56:09.505Z,2.10
2022-12-27T02:58:51.211Z,2.20
2022-12-27T03:01:50.228Z,1.70
2022-12-27T03:04:32.794Z,2.30
2022-12-27T03:07:26.886Z,1.80
2022-12-27T03:10:29.379Z,2.60
2022-12-27T03:13:31.738Z,1.90
2022-12-27T03:16:19.383Z,1.80
2022-12-27T03:19:00.498Z,2.50
2022-12-27T03:21:52.612Z,2.60
2022-12-27T03:24:46.826Z,2.20
2022-12-27T03:27:28.278Z,1.80
2022-12-27T03:30:21.229Z,2.30
2022-12-27T03:33:15.728Z,2.20
2022-12-27T03:36:07.763Z,1.90
2022-12-27T03:38:48.278Z,2.00
2022-12-27T03:41:43.528Z,2.00
2022-12-27T03:44:25.657Z,2.10
2022-12-27T03:47:01.010Z,2.90
2022-12-27T03:49:37.483Z,2.30
2022-12-27T03:52:12.575Z,2.30
2022-12-27T03:54:48.112Z,1.60
2022-12-27T03:57:23.287Z,3.80
2022-12-27T03:59:55.432Z,2.80
2022-12-27T04:02:27.605Z,1.60
2022-12-27T04:04:59.734Z,2.20
2022-12-27T04:07:31.976Z,1.70
2022-12-27T04:10:21.339Z,1.90
2022-12-27T04:13:10.634Z,2.10
2022-12-27T04:15:59.670Z,1.90
2022-12-27T04:18:48.883Z,2.70
2022-12-27T04:21:38.860Z,2.10
2022-12-27T04:24:28.719Z,2.20
2022-12-27T04:27:17.659Z,3.40
2022-12-27T04:30:06.762Z,2.00
2022-12-27T04:32:56.027Z,2.10
2022-12-27T04:35:28.135Z,2.20
2022-12-27T04:37:59.803Z,2.80
2022-12-27T04:40:49.901Z,2.20
2022-12-27T04:43:39.077Z,1.80
2022-12-27T04:46:37.106Z,1.90
2022-12-27T04:49:30.185Z,2.10
2022-12-27T04:52:20.068Z,1.70
2022-12-27T04:55:00.847Z,2.10
2022-12-27T04:57:32.960Z,1.90
2022-12-27T05:00:22.498Z,1.90
2022-12-27T05:02:54.638Z,2.10
2022-12-27T05:05:26.847Z,2.20
2022-12-27T05:08:17.059Z,1.60
2022-12-27T05:11:09.324Z,3.10
2022-12-27T05:13:58.651Z,1.80
2022-12-27T05:16:32.307Z,1.90
2022-12-27T05:19:04.633Z,2.10
2022-12-27T05:21:39.270Z,2.60
2022-12-27T05:24:29.384Z,2.20
2022-12-27T05:27:01.522Z,2.20
2022-12-27T05:29:35.976Z,2.30
2022-12-27T05:32:12.813Z,2.70
2022-12-27T05:34:45.101Z,3.00
2022-12-27T05:37:16.951Z,2.10
2022-12-27T05:39:49.002Z,3.20
2022-12-27T05:42:20.956Z,3.70
2022-12-27T05:44:52.601Z,2.00
2022-12-27T05:47:24.374Z,2.00
2022-12-27T05:49:56.396Z,2.00
2022-12-27T05:52:28.297Z,2.80
2022-12-27T05:55:00.459Z,2.20
2022-12-27T05:57:32.237Z,2.60
2022-12-27T06:00:05.271Z,2.00
2022-12-27T06:02:44.239Z,1.90
2022-12-27T06:05:16.267Z,2.60
2022-12-27T06:07:47.909Z,2.10
2022-12-27T06:10:19.708Z,1.90
2022-12-27T06:12:51.434Z,2.30
2022-12-27T06:15:23.192Z,2.00
2022-12-27T06:17:55.024Z,3.10
2022-12-27T06:20:27.116Z,2.80
2022-12-27T06:23:01.225Z,3.00
2022-12-27T06:25:33.348Z,2.80
2022-12-27T06:28:06.289Z,2.30
2022-12-27T06:30:38.223Z,2.70
2022-12-27T06:33:09.943Z,2.70
2022-12-27T06:35:41.790Z,2.30
2022-12-27T06:38:13.531Z,2.70
2022-12-27T06:40:45.319Z,2.40
2022-12-27T06:43:17.244Z,3.10
2022-12-27T06:45:58.464Z,2.70
2022-12-27T06:48:30.906Z,3.10
2022-12-27T06:51:06.788Z,3.40
2022-12-27T06:53:39.030Z,3.10
2022-12-27T06:56:13.289Z,3.00
2022-12-27T06:58:45.236Z,2.30
2022-12-27T07:01:19.594Z,3.60
2022-12-27T07:03:53.510Z,2.40
2022-12-27T07:06:26.217Z,3.00
2022-12-27T07:11:32.494Z,2.50
2022-12-27T07:14:05.205Z,4.10
2022-12-27T07:16:37.030Z,2.80
2022-12-27T07:19:10.330Z,2.80
2022-12-27T07:21:42.110Z,3.10
2022-12-27T07:24:13.946Z,3.80
2022-12-27T07:26:46.118Z,2.80
2022-12-27T07:29:18.440Z,3.80
2022-12-27T07:31:50.401Z,3.80
2022-12-27T07:34:22.981Z,3.20
2022-12-27T07:36:54.818Z,3.40
2022-12-27T07:39:26.461Z,4.10
2022-12-27T07:42:01.875Z,4.80
2022-12-27T07:44:40.480Z,3.30
2022-12-27T07:47:12.925Z,2.60
2022-12-27T07:49:44.618Z,2.00
2022-12-27T07:52:16.437Z,3.00
2022-12-27T07:54:48.200Z,2.90
2022-12-27T07:57:20.204Z,3.40
2022-12-27T07:59:51.845Z,2.80
2022-12-27T08:02:24.029Z,1.60
2022-12-27T08:04:55.912Z,3.00
2022-12-27T08:07:28.084Z,2.50
2022-12-27T08:10:02.240Z,2.80
2022-12-27T08:12:34.487Z,5.40
2022-12-27T08:15:07.520Z,2.00
2022-12-27T08:17:39.696Z,2.90
2022-12-27T08:20:15.822Z,2.30
2022-12-27T08:22:48.006Z,2.10
2022-12-27T08:25:19.858Z,2.90
2022-12-27T08:27:52.234Z,3.10
2022-12-27T08:30:24.006Z,3.30
2022-12-27T08:32:55.843Z,3.40
2022-12-27T08:35:52.360Z,3.90
2022-12-27T08:38:21.351Z,2.60
2022-12-27T08:40:53.168Z,2.60
2022-12-27T08:43:25.148Z,2.90
2022-12-27T08:46:00.774Z,3.90
2022-12-27T08:48:33.699Z,3.00
2022-12-27T08:51:12.607Z,3.60
2022-12-27T08:53:46.382Z,2.70
2022-12-27T08:56:18.098Z,3.00
2022-12-27T08:58:52.546Z,3.20
2022-12-27T09:01:25.703Z,3.60
2022-12-27T09:03:57.757Z,2.80
2022-12-27T09:06:29.550Z,2.60
2022-12-27T09:09:01.536Z,3.00
2022-12-27T09:11:35.230Z,2.30
2022-12-27T09:14:07.918Z,3.50
2022-12-27T09:16:41.234Z,2.80
2022-12-27T09:21:44.414Z,3.10
2022-12-27T09:26:46.872Z,3.50
2022-12-27T09:29:19.360Z,3.00
2022-12-27T09:31:52.078Z,3.90
2022-12-27T09:36:54.277Z,2.70
2022-12-27T09:45:01.805Z,3.20
2022-12-27T09:47:40.098Z,3.40
2022-12-27T09:50:18.390Z,3.30
2022-12-27T09:53:00.587Z,3.40
2022-12-27T09:55:47.070Z,3.60
2022-12-27T09:58:39.567Z,3.10
2022-12-27T10:01:22.859Z,3.20
2022-12-27T10:03:55.631Z,2.60
2022-12-27T10:06:41.581Z,2.80
2022-12-27T10:09:32.852Z,3.00
2022-12-27T10:12:15.234Z,3.00
2022-12-27T10:15:02.622Z,2.90
2022-12-27T10:17:53.081Z,2.70
2022-12-27T10:20:36.308Z,3.30
2022-12-27T10:23:13.676Z,3.70
2022-12-27T10:25:47.868Z,3.40
2022-12-27T10:28:25.591Z,3.10
2022-12-27T10:31:02.584Z,3.00
2022-12-27T10:33:36.331Z,3.90
2022-12-27T10:36:14.188Z,4.20
2022-12-27T10:38:49.061Z,2.50
2022-12-27T10:41:39.603Z,3.40
2022-12-27T10:44:13.766Z,3.00
2022-12-27T10:46:50.732Z,4.00
2022-12-27T10:49:28.186Z,3.60
2022-12-27T10:52:08.024Z,3.50
2022-12-27T10:54:52.723Z,3.60
2022-12-27T10:57:29.757Z,3.30
2022-12-27T11:00:19.105Z,4.00
2022-12-27T11:02:55.639Z,3.60
2022-12-27T11:05:30.998Z,3.50
2022-12-27T11:08:20.177Z,3.40
2022-12-27T11:11:11.923Z,3.60
2022-12-27T11:13:44.072Z,3.80
2022-12-27T11:16:27.954Z,3.30
2022-12-27T11:19:02.433Z,3.40
2022-12-27T11:21:38.820Z,4.70
2022-12-27T11:27:04.853Z,4.20
2022-12-27T11:29:37.942Z,2.50
2022-12-27T11:32:11.142Z,3.20
2022-12-27T11:34:49.669Z,3.90
2022-12-27T11:37:25.529Z,2.90
2022-12-27T11:40:12.375Z,3.60
2022-12-27T11:42:48.410Z,3.20
2022-12-27T11:45:27.782Z,3.10
2022-12-27T11:48:06.107Z,3.50
2022-12-27T11:50:51.308Z,3.50
2022-12-27T11:53:44.232Z,3.50
2022-12-27T11:56:27.393Z,4.10
2022-12-27T11:59:16.325Z,4.20
2022-12-27T12:02:19.615Z,4.60
2022-12-27T12:05:12.649Z,4.40
2022-12-27T12:08:06.157Z,4.50
2022-12-27T12:10:50.482Z,4.30
2022-12-27T12:13:53.117Z,4.30
2022-12-27T12:16:55.906Z,3.60
2022-12-27T12:19:49.914Z,4.30
2022-12-27T12:22:40.448Z,3.80
2022-12-27T12:25:37.647Z,4.70
2022-12-27T12:28:57.698Z,4.40
2022-12-27T12:31:42.382Z,4.40
2022-12-27T12:34:36.017Z,4.40
2022-12-27T12:37:18.822Z,3.60
2022-12-27T12:40:02.637Z,4.20
2022-12-27T12:42:44.235Z,3.50
2022-12-27T12:45:28.548Z,3.90
2022-12-27T12:48:20.527Z,3.10
2022-12-27T12:51:11.870Z,4.20
2022-12-27T12:54:01.122Z,4.10
2022-12-27T12:56:54.871Z,4.20
2022-12-27T13:00:12.635Z,3.70
2022-12-27T13:03:12.051Z,4.10
2022-12-27T13:05:50.228Z,5.50
2022-12-27T13:08:30.979Z,4.90
2022-12-27T13:11:23.051Z,4.10
2022-12-27T13:14:07.822Z,4.10
2022-12-27T13:16:51.619Z,3.70
2022-12-27T13:19:42.431Z,4.00
2022-12-27T13:22:22.383Z,3.80
2022-12-27T13:25:04.679Z,5.10
2022-12-27T13:27:43.699Z,5.50
2022-12-27T13:30:22.420Z,5.90
2022-12-27T13:33:22.922Z,4.70
2022-12-27T13:36:08.687Z,4.30
2022-12-27T13:39:02.334Z,4.80
2022-12-27T13:41:51.113Z,4.20
2022-12-27T13:44:55.421Z,5.10
2022-12-27T13:47:53.363Z,6.30
2022-12-27T13:50:44.698Z,5.10
2022-12-27T13:53:39.032Z,5.10
2022-12-27T13:56:52.985Z,4.90
2022-12-27T13:59:46.184Z,4.70
2022-12-27T14:02:50.190Z,4.10
2022-12-27T14:06:03.855Z,5.60
2022-12-27T14:11:28.251Z,4.60
2022-12-27T14:14:02.110Z,5.80
2022-12-27T14:16:50.516Z,5.10
2022-12-27T14:19:52.169Z,4.60
2022-12-27T14:22:56.655Z,5.20
2022-12-27T14:25:59.319Z,5.00
2022-12-27T14:29:01.643Z,5.00
2022-12-27T14:32:09.701Z,4.90
2022-12-27T14:35:25.441Z,6.50
2022-12-27T14:38:32.452Z,5.70
2022-12-27T14:41:25.605Z,6.10
2022-12-27T14:47:10.039Z,5.40
2022-12-27T14:50:15.185Z,5.90
2022-12-27T14:53:22.702Z,5.70
2022-12-27T14:56:08.241Z,6.00
2022-12-27T14:58:49.632Z,5.30
2022-12-27T15:01:39.203Z,5.40
2022-12-27T15:04:44.524Z,6.40
2022-12-27T15:07:42.862Z,5.00
2022-12-27T15:10:25.062Z,5.40
2022-12-27T15:13:07.059Z,4.90
2022-12-27T15:15:53.976Z,4.60
2022-12-27T15:18:48.144Z,5.10
2022-12-27T15:21:41.635Z,6.10
2022-12-27T15:24:28.701Z,5.00
2022-12-27T15:27:08.983Z,5.00
2022-12-27T15:29:53.540Z,4.90
2022-12-27T15:32:35.401Z,5.00
2022-12-27T15:35:20.045Z,4.60
2022-12-27T15:38:04.177Z,4.30
2022-12-27T15:40:47.998Z,4.70
2022-12-27T15:43:40.049Z,5.50
2022-12-27T15:46:36.374Z,5.00
2022-12-27T15:49:35.989Z,4.10
2022-12-27T15:52:16.328Z,4.00
2022-12-27T15:55:07.061Z,4.60
2022-12-27T15:57:56.566Z,4.40
2022-12-27T16:00:34.529Z,4.60
2022-12-27T16:03:35.478Z,5.70
2022-12-27T16:06:10.409Z,4.70
2022-12-27T16:08:43.392Z,4.50
2022-12-27T16:11:16.256Z,4.30
2022-12-27T16:13:50.845Z,4.80
2022-12-27T16:16:53.854Z,5.60
2022-12-27T16:20:00.441Z,5.70
2022-12-27T16:22:39.859Z,4.90
2022-12-27T16:25:34.392Z,4.70
2022-12-27T16:28:10.285Z,5.80
2022-12-27T16:30:49.226Z,5.20
2022-12-27T16:33:35.454Z,4.50
2022-12-27T16:36:19.155Z,5.30
2022-12-27T16:39:01.673Z,4.10
2022-12-27T16:42:01.397Z,4.70
2022-12-27T16:44:47.031Z,6.00
2022-12-27T16:47:40.451Z,5.10
2022-12-27T16:50:34.783Z,6.20
2022-12-27T16:53:25.674Z,5.60
2022-12-27T16:56:25.310Z,6.30
2022-12-27T16:58:57.549Z,5.90
2022-12-27T17:01:47.239Z,5.70
2022-12-27T17:04:51.839Z,5.10
2022-12-27T17:07:46.843Z,5.60
2022-12-27T17:10:54.948Z,6.20
2022-12-27T17:13:36.339Z,5.80
2022-12-27T17:16:21.723Z,6.30
2022-12-27T17:18:57.957Z,5.70
2022-12-27T17:21:35.075Z,5.80
2022-12-27T17:24:11.371Z,5.90
2022-12-27T17:27:04.594Z,5.90
2022-12-27T17:30:07.865Z,5.80
2022-12-27T17:32:52.822Z,5.10
2022-12-27T17:35:32.921Z,5.60
2022-12-27T17:38:16.231Z,6.30
2022-12-27T17:40:58.591Z,5.10
2022-12-27T17:43:58.322Z,5.20
2022-12-27T17:46:40.795Z,5.40
2022-12-27T17:49:13.504Z,5.00
2022-12-27T17:54:55.315Z,5.20
2022-12-27T17:57:45.690Z,6.50
2022-12-27T18:00:29.098Z,6.50
2022-12-27T18:03:07.496Z,5.90
2022-12-27T18:05:46.512Z,5.20
2022-12-27T18:08:27.864Z,5.30
2022-12-27T18:11:01.879Z,4.70
2022-12-27T18:13:36.588Z,5.70
2022-12-27T18:16:17.997Z,6.00
2022-12-27T18:18:53.139Z,6.10
2022-12-27T18:21:26.925Z,6.40
2022-12-27T18:23:59.609Z,6.40
2022-12-27T18:26:38.199Z,7.50
2022-12-27T18:29:13.462Z,6.30
2022-12-27T18:31:49.506Z,7.10
2022-12-27T18:34:27.585Z,7.10
2022-12-27T18:37:03.905Z,8.90
2022-12-27T18:39:38.268Z,8.00
2022-12-27T18:42:20.486Z,8.00
2022-12-27T18:44:56.247Z,8.80
2022-12-27T18:47:29.499Z,9.00
2022-12-27T18:50:03.823Z,8.00
2022-12-27T18:52:40.888Z,8.80
2022-12-27T18:55:19.171Z,9.60
2022-12-27T18:58:01.933Z,8.50
2022-12-27T19:00:47.301Z,8.30
2022-12-27T19:03:21.367Z,9.40
2022-12-27T19:06:10.175Z,9.10
2022-12-27T19:08:48.872Z,8.10
2022-12-27T19:11:24.538Z,8.50
2022-12-27T19:13:59.326Z,9.40
2022-12-27T19:16:35.679Z,10.10
2022-12-27T19:19:17.278Z,9.00
2022-12-27T19:21:49.225Z,8.40
2022-12-27T19:24:35.795Z,8.20
2022-12-27T19:27:25.176Z,9.30
2022-12-27T19:29:57.244Z,7.90
2022-12-27T19:32:32.790Z,7.70
2022-12-27T19:35:07.610Z,7.80
2022-12-27T19:37:40.114Z,7.50
2022-12-27T19:40:18.011Z,8.80
2022-12-27T19:42:50.183Z,7.90
2022-12-27T19:45:22.566Z,8.30
2022-12-27T19:47:57.886Z,8.00
2022-12-27T19:50:30.856Z,8.20
2022-12-27T19:53:03.268Z,11.00
2022-12-27T19:55:36.629Z,8.50
2022-12-27T19:58:10.767Z,8.40
2022-12-27T20:00:43.080Z,8.50
2022-12-27T20:03:15.032Z,10.40
2022-12-27T20:06:14.311Z,9.50
2022-12-27T20:08:43.943Z,8.70
2022-12-27T20:11:18.643Z,9.10
2022-12-27T20:13:50.874Z,10.20
2022-12-27T20:16:23.263Z,8.90
2022-12-27T20:18:55.490Z,9.90
2022-12-27T20:21:28.460Z,10.00
2022-12-27T20:24:00.561Z,10.30
2022-12-27T20:26:33.311Z,10.40
2022-12-27T20:29:05.775Z,10.00
2022-12-27T20:31:44.510Z,11.40
2022-12-27T20:34:17.423Z,11.70
2022-12-27T20:36:49.833Z,10.60
2022-12-27T20:39:22.397Z,11.60
2022-12-27T20:41:55.863Z,12.00
2022-12-27T20:44:29.541Z,10.90
2022-12-27T20:47:01.629Z,11.10
2022-12-27T20:49:34.634Z,12.70
2022-12-27T20:52:07.158Z,12.00
2022-12-27T20:54:39.375Z,12.60
2022-12-27T20:57:11.820Z,12.40
2022-12-27T20:59:43.885Z,12.10
2022-12-27T21:02:15.988Z,12.10
2022-12-27T21:04:47.905Z,11.90
2022-12-27T21:07:19.640Z,13.20
2022-12-27T21:09:51.653Z,14.00
2022-12-27T21:12:23.380Z,13.20
2022-12-27T21:14:55.094Z,13.80
2022-12-27T21:17:27.003Z,8.40
2022-12-27T21:19:59.807Z,13.50
2022-12-27T21:22:31.909Z,13.60
2022-12-27T21:25:04.188Z,12.40
2022-12-27T21:27:36.110Z,12.00
2022-12-27T21:30:13.412Z,11.90
2022-12-27T21:32:45.275Z,11.80
2022-12-27T21:35:17.346Z,11.50
2022-12-27T21:37:49.203Z,9.20
2022-12-27T21:40:23.044Z,11.80
2022-12-27T21:42:55.945Z,9.90
2022-12-27T21:45:27.613Z,12.00
2022-12-27T21:47:59.392Z,10.70
2022-12-27T21:50:36.990Z,10.80
2022-12-27T21:53:09.129Z,10.20
2022-12-27T21:55:41.000Z,10.30
2022-12-27T21:58:14.663Z,5.10
2022-12-27T22:00:47.036Z,9.70
2022-12-27T22:03:18.874Z,11.50
2022-12-27T22:05:50.702Z,10.80
2022-12-27T22:08:22.390Z,11.40
2022-12-27T22:10:58.278Z,9.90
2022-12-27T22:13:30.095Z,11.00
2022-12-27T22:16:03.639Z,8.10
2022-12-27T22:18:37.294Z,10.20
2022-12-27T22:21:11.302Z,11.30
2022-12-27T22:23:45.578Z,9.80
2022-12-27T22:26:19.167Z,10.70
2022-12-27T22:28:51.315Z,10.80
2022-12-27T22:31:30.504Z,11.20
2022-12-27T22:34:30.576Z,10.50
2022-12-27T22:37:04.903Z,11.50
2022-12-27T22:39:36.658Z,12.60
2022-12-27T22:42:08.443Z,11.00
2022-12-27T22:44:40.213Z,11.40
2022-12-27T22:47:28.296Z,11.30
2022-12-27T22:50:00.468Z,10.90
2022-12-27T22:52:32.436Z,11.20
2022-12-27T22:55:07.160Z,11.10
2022-12-27T22:57:39.466Z,11.90
2022-12-27T23:00:15.987Z,13.30
2022-12-27T23:02:48.348Z,11.00
2022-12-27T23:05:20.516Z,13.20
2022-12-27T23:08:04.858Z,11.90
2022-12-27T23:10:38.601Z,12.10
2022-12-27T23:13:10.490Z,13.30
2022-12-27T23:15:42.473Z,12.90
2022-12-27T23:18:14.535Z,12.90
2022-12-27T23:21:19.108Z,13.70
2022-12-27T23:23:39.144Z,13.80
2022-12-27T23:26:14.597Z,13.40
2022-12-27T23:28:47.397Z,13.90
2022-12-27T23:31:20.100Z,13.50
2022-12-27T23:33:52.620Z,13.70
2022-12-27T23:36:24.802Z,16.70
2022-12-27T23:38:56.653Z,13.00
2022-12-27T23:41:28.924Z,12.50
2022-12-27T23:44:02.918Z,12.10
2022-12-27T23:46:35.393Z,12.70
2022-12-27T23:49:07.150Z,12.30
2022-12-27T23:51:38.837Z,10.70
2022-12-27T23:54:10.883Z,11.90
2022-12-27T23:56:42.672Z,7.40
2022-12-27T23:59:16.765Z,9.10
